Time;durP1;ratioP1;P1;durP2;ratioP2;P2;SDS_P1;SDS_P2;PMS_P1;PMS_P2;Temp;Humidity;BMP_temperature;BMP_pressure;BME280_temperature;BME280_humidity;BME280_pressure;Samples;Min_cycle;Max_cycle;Signal;HPM_P1;HPM_P2
2022/05/17 00:01:03;;;;;;;31.10;21.30;;;;;;;;;;5053024;28;20496;-55
2022/05/17 00:03:29;;;;;;;35.13;22.13;;;;;;;;;;5053567;28;20461;-56
2022/05/17 00:05:55;;;;;;;31.10;21.77;;;;;;;;;;5053882;28;20385;-57
2022/05/17 00:08:21;;;;;;;38.90;22.00;;;;;;;;;;5053455;28;20402;-57
2022/05/17 00:10:47;;;;;;;30.07;22.20;;;;;;;;;;5052979;28;20413;-55
2022/05/17 00:13:13;;;;;;;44.57;21.30;;;;;;;;;;5053414;28;20373;-55
2022/05/17 00:15:41;;;;;;;23.00;20.10;;;;;;;;;;5053344;28;20380;-55
2022/05/17 00:18:11;;;;;;;28.97;20.60;;;;;;;;;;5053462;28;20380;-56
2022/05/17 00:20:37;;;;;;;40.93;21.73;;;;;;;;;;5053367;28;20797;-57
2022/05/17 00:23:03;;;;;;;23.20;18.30;;;;;;;;;;5052654;28;20425;-56
2022/05/17 00:25:29;;;;;;;25.90;19.43;;;;;;;;;;5053298;28;20833;-57
2022/05/17 00:27:55;;;;;;;101.27;26.50;;;;;;;;;;5053139;28;20432;-55
2022/05/17 00:30:21;;;;;;;34.80;24.53;;;;;;;;;;5053113;28;20441;-55
2022/05/17 00:32:47;;;;;;;52.53;23.80;;;;;;;;;;5052587;28;20857;-55
2022/05/17 00:35:14;;;;;;;30.30;22.37;;;;;;;;;;5053029;28;20404;-55
2022/05/17 00:37:40;;;;;;;39.73;23.03;;;;;;;;;;5053005;28;20870;-55
2022/05/17 00:40:07;;;;;;;34.13;22.33;;;;;;;;;;5052938;28;20376;-55
2022/05/17 00:42:33;;;;;;;27.03;22.13;;;;;;;;;;5051375;28;20874;-55
2022/05/17 00:44:59;;;;;;;28.90;22.00;;;;;;;;;;5052781;28;20500;-54
2022/05/17 00:47:25;;;;;;;33.70;22.50;;;;;;;;;;5052947;28;20784;-55
2022/05/17 00:49:57;;;;;;;28.20;21.70;;;;;;;;;;5052966;28;20375;-57
2022/05/17 00:52:42;;;;;;;27.30;22.30;;;;;;;;;;5052170;28;20414;-58
2022/05/17 00:55:13;;;;;;;29.57;21.90;;;;;;;;;;5052629;28;20391;-55
2022/05/17 00:57:45;;;;;;;31.30;22.80;;;;;;;;;;5052565;28;20764;-55
2022/05/17 01:00:13;;;;;;;44.23;22.40;;;;;;;;;;5052480;28;20458;-56
2022/05/17 01:02:42;;;;;;;29.00;19.33;;;;;;;;;;5051121;28;20445;-56
2022/05/17 01:05:09;;;;;;;34.07;20.20;;;;;;;;;;5051796;28;20478;-55
2022/05/17 01:07:53;;;;;;;30.47;19.20;;;;;;;;;;5052321;28;20823;-54
2022/05/17 01:10:19;;;;;;;31.90;19.47;;;;;;;;;;5052380;28;20539;-56
2022/05/17 01:14:57;;;;;;;128.03;22.90;;;;;;;;;;5051725;28;20901;-55
2022/05/17 01:15:31;;;;;;;42.60;19.50;;;;;;;;;;5052105;28;20879;-55
2022/05/17 01:17:58;;;;;;;24.97;18.60;;;;;;;;;;5052276;28;20477;-56
2022/05/17 01:20:24;;;;;;;23.50;18.93;;;;;;;;;;5052362;28;20459;-54
2022/05/17 01:22:50;;;;;;;31.47;18.60;;;;;;;;;;5051527;28;20506;-55
2022/05/17 01:25:16;;;;;;;55.97;18.53;;;;;;;;;;5052144;28;20429;-55
2022/05/17 01:27:48;;;;;;;54.40;18.87;;;;;;;;;;5052226;28;20408;-55
2022/05/17 01:30:16;;;;;;;39.20;20.37;;;;;;;;;;5052141;28;20869;-55
2022/05/17 01:32:42;;;;;;;29.60;21.80;;;;;;;;;;5051448;28;20401;-57
2022/05/17 01:35:08;;;;;;;37.43;22.40;;;;;;;;;;5051867;28;20479;-55
2022/05/17 01:37:34;;;;;;;31.10;20.53;;;;;;;;;;5051885;28;20409;-56
2022/05/17 01:40:00;;;;;;;50.90;21.87;;;;;;;;;;5051887;28;20401;-55
2022/05/17 01:42:26;;;;;;;26.03;20.40;;;;;;;;;;5051278;28;20376;-56
2022/05/17 01:44:52;;;;;;;39.87;20.87;;;;;;;;;;5051738;28;20461;-57
2022/05/17 01:47:18;;;;;;;28.53;21.53;;;;;;;;;;5051836;28;20436;-57
2022/05/17 01:49:44;;;;;;;29.80;20.07;;;;;;;;;;5051958;28;21045;-56
2022/05/17 01:52:11;;;;;;;34.83;19.47;;;;;;;;;;5051217;28;20871;-54
2022/05/17 01:54:37;;;;;;;33.53;19.87;;;;;;;;;;5051620;28;20470;-56
2022/05/17 01:57:03;;;;;;;42.10;19.13;;;;;;;;;;5051703;28;20410;-55
2022/05/17 01:59:29;;;;;;;46.00;19.27;;;;;;;;;;5051694;28;20467;-55
2022/05/17 02:01:55;;;;;;;25.53;18.70;;;;;;;;;;5051089;28;20427;-55
2022/05/17 02:04:21;;;;;;;23.17;18.40;;;;;;;;;;5051579;28;20591;-55
2022/05/17 02:06:47;;;;;;;22.23;18.30;;;;;;;;;;5051689;28;20458;-54
2022/05/17 02:09:13;;;;;;;25.37;18.73;;;;;;;;;;5051581;28;20368;-55
2022/05/17 02:11:40;;;;;;;20.40;17.00;;;;;;;;;;5051033;28;20488;-55
2022/05/17 02:14:06;;;;;;;24.00;18.00;;;;;;;;;;5051578;28;20435;-56
2022/05/17 02:16:37;;;;;;;24.10;19.37;;;;;;;;;;5051614;28;20409;-54
2022/05/17 02:19:03;;;;;;;21.67;18.70;;;;;;;;;;5051632;28;20824;-58
2022/05/17 02:21:29;;;;;;;22.03;18.77;;;;;;;;;;5051010;28;20410;-57
2022/05/17 02:23:55;;;;;;;29.20;18.60;;;;;;;;;;5051384;28;20976;-55
2022/05/17 02:26:21;;;;;;;25.53;18.23;;;;;;;;;;5051571;28;20750;-56
2022/05/17 02:28:47;;;;;;;22.13;17.00;;;;;;;;;;5051375;28;20428;-56
2022/05/17 02:31:13;;;;;;;36.20;18.43;;;;;;;;;;5050892;28;20426;-55
2022/05/17 02:33:39;;;;;;;21.57;17.77;;;;;;;;;;5051458;28;20448;-55
2022/05/17 02:36:05;;;;;;;25.57;18.30;;;;;;;;;;5051471;28;20440;-55
2022/05/17 02:38:31;;;;;;;23.10;16.60;;;;;;;;;;5051306;28;20416;-55
2022/05/17 02:40:57;;;;;;;21.90;18.20;;;;;;;;;;5050644;28;20411;-55
2022/05/17 02:43:23;;;;;;;19.27;17.03;;;;;;;;;;5051069;28;20464;-55
2022/05/17 02:45:49;;;;;;;20.90;17.57;;;;;;;;;;5051299;28;20375;-57
2022/05/17 02:48:15;;;;;;;27.80;19.70;;;;;;;;;;5051217;28;20405;-60
2022/05/17 02:50:41;;;;;;;21.77;19.40;;;;;;;;;;5051140;28;20393;-57
2022/05/17 02:53:07;;;;;;;26.57;19.90;;;;;;;;;;5050578;28;20427;-55
2022/05/17 02:55:33;;;;;;;23.50;17.90;;;;;;;;;;5051225;28;20405;-55
2022/05/17 02:57:59;;;;;;;27.70;18.43;;;;;;;;;;5051118;28;20414;-55
2022/05/17 03:00:26;;;;;;;22.33;16.33;;;;;;;;;;5051148;28;20459;-55
2022/05/17 03:02:52;;;;;;;23.40;17.93;;;;;;;;;;5050439;28;20448;-55
2022/05/17 03:05:18;;;;;;;28.13;17.53;;;;;;;;;;5051444;28;20417;-55
2022/05/17 03:07:44;;;;;;;28.90;19.10;;;;;;;;;;5054756;28;20405;-54
2022/05/17 03:10:11;;;;;;;19.53;16.10;;;;;;;;;;5054676;28;20405;-55
2022/05/17 03:12:37;;;;;;;18.93;15.10;;;;;;;;;;5053886;28;20468;-55
2022/05/17 03:15:04;;;;;;;20.83;17.07;;;;;;;;;;5054509;28;20915;-57
2022/05/17 03:17:30;;;;;;;26.90;18.60;;;;;;;;;;5054621;28;20387;-55
2022/05/17 03:19:56;;;;;;;26.07;17.80;;;;;;;;;;5054441;28;20404;-56
2022/05/17 03:22:23;;;;;;;21.83;16.23;;;;;;;;;;5053858;28;20459;-55
2022/05/17 03:24:49;;;;;;;22.03;17.10;;;;;;;;;;5054311;28;20468;-56
2022/05/17 03:27:17;;;;;;;22.60;16.97;;;;;;;;;;5054247;28;20386;-55
2022/05/17 03:29:43;;;;;;;21.90;16.50;;;;;;;;;;5054387;28;20399;-55
2022/05/17 03:32:10;;;;;;;26.40;16.50;;;;;;;;;;5053666;28;20769;-56
2022/05/17 03:34:36;;;;;;;25.10;17.17;;;;;;;;;;5053892;28;20425;-56
2022/05/17 03:37:02;;;;;;;22.07;17.00;;;;;;;;;;5054253;28;20406;-55
2022/05/17 03:39:28;;;;;;;22.07;17.10;;;;;;;;;;5054065;28;20411;-55
2022/05/17 03:41:54;;;;;;;20.93;15.87;;;;;;;;;;5053411;28;20470;-54
2022/05/17 03:44:20;;;;;;;21.20;17.40;;;;;;;;;;5053918;28;20546;-55
2022/05/17 03:46:46;;;;;;;24.10;16.00;;;;;;;;;;5054178;28;20403;-55
2022/05/17 03:49:12;;;;;;;25.90;18.40;;;;;;;;;;5053992;28;20425;-55
2022/05/17 03:51:38;;;;;;;28.30;18.80;;;;;;;;;;5053213;28;20407;-55
2022/05/17 03:54:04;;;;;;;25.43;18.10;;;;;;;;;;5053835;28;20498;-57
2022/05/17 03:56:30;;;;;;;24.80;17.63;;;;;;;;;;5053764;28;20424;-55
2022/05/17 03:58:56;;;;;;;24.67;18.23;;;;;;;;;;5053682;28;20453;-56
2022/05/17 04:01:22;;;;;;;24.67;18.70;;;;;;;;;;5053092;28;20815;-56
2022/05/17 04:03:48;;;;;;;24.73;18.33;;;;;;;;;;5053598;28;20961;-54
2022/05/17 04:06:14;;;;;;;25.77;18.83;;;;;;;;;;5053710;28;20401;-55
2022/05/17 04:08:40;;;;;;;23.30;16.60;;;;;;;;;;5053518;28;20405;-55
2022/05/17 04:11:07;;;;;;;22.83;17.00;;;;;;;;;;5052831;28;20414;-56
2022/05/17 04:13:33;;;;;;;25.23;19.07;;;;;;;;;;5053464;28;20398;-56
2022/05/17 04:16:00;;;;;;;26.03;18.97;;;;;;;;;;5053453;28;20401;-55
2022/05/17 04:18:26;;;;;;;25.40;18.60;;;;;;;;;;5053308;28;20419;-57
2022/05/17 04:20:57;;;;;;;33.50;17.70;;;;;;;;;;5052801;28;20865;-57
2022/05/17 04:23:22;;;;;;;25.40;18.10;;;;;;;;;;5053117;28;20522;-55
2022/05/17 04:25:48;;;;;;;21.20;17.57;;;;;;;;;;5053401;28;20486;-56
2022/05/17 04:28:15;;;;;;;26.00;19.30;;;;;;;;;;5053213;28;20403;-57
2022/05/17 04:30:41;;;;;;;22.63;17.03;;;;;;;;;;5053063;28;20769;-55
2022/05/17 04:33:07;;;;;;;24.50;17.37;;;;;;;;;;5051657;28;20415;-56
2022/05/17 04:35:33;;;;;;;25.60;17.10;;;;;;;;;;5053107;28;20900;-55
2022/05/17 04:38:00;;;;;;;24.77;16.43;;;;;;;;;;5053005;28;20387;-55
2022/05/17 04:40:26;;;;;;;24.27;16.00;;;;;;;;;;5052923;28;20893;-57
2022/05/17 04:42:56;;;;;;;21.17;16.30;;;;;;;;;;5052237;28;20392;-56
2022/05/17 04:45:22;;;;;;;22.70;17.17;;;;;;;;;;5052823;28;20427;-55
2022/05/17 04:47:48;;;;;;;27.77;16.73;;;;;;;;;;5052779;28;20465;-56
2022/05/17 04:50:15;;;;;;;19.97;17.70;;;;;;;;;;5052716;28;20383;-56
2022/05/17 04:52:41;;;;;;;25.37;17.33;;;;;;;;;;5052054;28;20424;-56
2022/05/17 04:55:07;;;;;;;23.30;16.90;;;;;;;;;;5052588;28;20926;-55
2022/05/17 04:57:35;;;;;;;23.27;16.37;;;;;;;;;;5052574;28;20381;-56
2022/05/17 05:00:01;;;;;;;25.07;18.60;;;;;;;;;;5052516;28;20383;-54
2022/05/17 05:02:27;;;;;;;32.00;22.03;;;;;;;;;;5051914;28;20423;-57
2022/05/17 05:04:53;;;;;;;28.30;19.80;;;;;;;;;;5052436;28;20461;-55
2022/05/17 05:07:19;;;;;;;28.17;19.47;;;;;;;;;;5052503;28;20456;-55
2022/05/17 05:09:45;;;;;;;27.23;18.73;;;;;;;;;;5052324;28;20436;-56
2022/05/17 05:12:11;;;;;;;27.00;19.00;;;;;;;;;;5051643;28;20364;-55
2022/05/17 05:14:37;;;;;;;27.67;19.03;;;;;;;;;;5052504;28;20909;-54
2022/05/17 05:17:03;;;;;;;26.80;19.03;;;;;;;;;;5052378;28;20392;-55
2022/05/17 05:19:29;;;;;;;27.80;18.60;;;;;;;;;;5052252;28;20406;-55
2022/05/17 05:21:55;;;;;;;26.30;19.67;;;;;;;;;;5051628;28;20380;-54
2022/05/17 05:24:22;;;;;;;25.90;19.13;;;;;;;;;;5052049;28;20429;-55
2022/05/17 05:26:48;;;;;;;23.90;19.13;;;;;;;;;;5052255;28;20435;-55
2022/05/17 05:29:14;;;;;;;25.60;19.40;;;;;;;;;;5051581;28;20456;-56
2022/05/17 05:31:40;;;;;;;28.10;17.63;;;;;;;;;;5051541;28;20411;-55
2022/05/17 05:34:06;;;;;;;25.10;17.13;;;;;;;;;;5051126;28;20836;-55
2022/05/17 05:36:32;;;;;;;18.50;16.50;;;;;;;;;;5052012;28;20445;-57
2022/05/17 05:38:58;;;;;;;20.30;16.10;;;;;;;;;;5051795;28;20380;-56
2022/05/17 05:41:24;;;;;;;26.97;15.93;;;;;;;;;;5052038;28;20405;-57
2022/05/17 05:43:50;;;;;;;24.67;15.73;;;;;;;;;;5051822;28;20523;-55
2022/05/17 05:46:16;;;;;;;19.50;15.50;;;;;;;;;;5051852;28;20949;-57
2022/05/17 05:48:42;;;;;;;27.43;17.93;;;;;;;;;;5051978;28;20377;-54
2022/05/17 05:51:09;;;;;;;37.47;20.27;;;;;;;;;;5051188;28;20383;-57
2022/05/17 05:53:34;;;;;;;31.90;22.00;;;;;;;;;;5051602;28;20466;-57
2022/05/17 05:56:05;;;;;;;31.50;21.77;;;;;;;;;;5051819;28;21067;-55
2022/05/17 05:58:33;;;;;;;32.13;21.00;;;;;;;;;;5051788;28;20378;-56
2022/05/17 06:00:59;;;;;;;27.87;20.50;;;;;;;;;;5051126;28;20498;-57
2022/05/17 06:03:26;;;;;;;36.97;19.67;;;;;;;;;;5051574;28;21007;-56
2022/05/17 06:05:52;;;;;;;23.80;20.30;;;;;;;;;;5051747;28;20377;-54
2022/05/17 06:08:19;;;;;;;30.20;18.50;;;;;;;;;;5051613;28;20378;-55
2022/05/17 06:10:45;;;;;;;29.37;18.73;;;;;;;;;;5051424;28;20404;-55
2022/05/17 06:13:16;;;;;;;28.67;19.83;;;;;;;;;;5051645;28;20789;-54
2022/05/17 06:15:42;;;;;;;30.50;17.03;;;;;;;;;;5051550;28;20396;-54
2022/05/17 06:18:08;;;;;;;24.30;17.40;;;;;;;;;;5051625;28;20908;-54
2022/05/17 06:20:35;;;;;;;25.83;17.90;;;;;;;;;;5051462;28;20413;-54
2022/05/17 06:23:01;;;;;;;21.13;16.30;;;;;;;;;;5051095;28;20477;-56
2022/05/17 06:25:27;;;;;;;25.00;16.37;;;;;;;;;;5051362;28;20469;-56
2022/05/17 06:27:54;;;;;;;20.73;15.80;;;;;;;;;;5051546;28;20400;-57
2022/05/17 06:30:20;;;;;;;22.87;16.27;;;;;;;;;;5051389;28;20400;-55
2022/05/17 06:32:46;;;;;;;17.50;13.30;;;;;;;;;;5050773;28;20408;-56
2022/05/17 06:35:12;;;;;;;23.13;15.23;;;;;;;;;;5051315;28;20478;-55
2022/05/17 06:37:39;;;;;;;20.70;14.73;;;;;;;;;;5051431;28;20404;-55
2022/05/17 06:40:06;;;;;;;18.60;14.83;;;;;;;;;;5051283;28;20401;-55
2022/05/17 06:42:32;;;;;;;16.50;13.60;;;;;;;;;;5066398;28;20418;-54
2022/05/17 06:44:58;;;;;;;14.53;12.80;;;;;;;;;;5054657;28;20543;-54
2022/05/17 06:47:24;;;;;;;15.63;12.30;;;;;;;;;;5053485;28;20417;-55
2022/05/17 06:49:50;;;;;;;19.00;13.13;;;;;;;;;;5053415;28;20401;-54
2022/05/17 06:52:16;;;;;;;19.20;12.80;;;;;;;;;;5054661;28;20763;-54
2022/05/17 06:54:43;;;;;;;17.30;11.73;;;;;;;;;;5055062;28;20425;-54
2022/05/17 06:57:10;;;;;;;17.93;10.93;;;;;;;;;;5054960;28;20401;-54
2022/05/17 06:59:36;;;;;;;14.07;11.27;;;;;;;;;;5054854;28;20908;-56
2022/05/17 07:02:04;;;;;;;12.70;10.47;;;;;;;;;;5054581;28;20770;-55
2022/05/17 07:04:31;;;;;;;15.00;11.93;;;;;;;;;;5054645;28;20439;-55
2022/05/17 07:06:57;;;;;;;12.80;11.37;;;;;;;;;;5054840;28;20402;-56
2022/05/17 07:09:24;;;;;;;20.03;10.43;;;;;;;;;;5054781;28;20485;-54
2022/05/17 07:14:37;;;;;;;12.80;10.37;;;;;;;;;;5054571;28;20463;-57
2022/05/17 07:17:04;;;;;;;20.13;11.47;;;;;;;;;;5054636;28;20447;-57
2022/05/17 07:19:32;;;;;;;15.57;11.17;;;;;;;;;;5054523;28;20405;-54
2022/05/17 07:21:58;;;;;;;14.67;11.67;;;;;;;;;;5053866;28;20480;-54
2022/05/17 07:24:23;;;;;;;13.97;11.63;;;;;;;;;;5054284;28;20548;-58
2022/05/17 07:26:49;;;;;;;17.13;11.23;;;;;;;;;;5054455;28;20399;-57
2022/05/17 07:29:15;;;;;;;19.70;11.07;;;;;;;;;;5054195;28;20405;-55
2022/05/17 07:31:41;;;;;;;14.67;11.10;;;;;;;;;;5053773;28;20436;-54
2022/05/17 07:34:07;;;;;;;14.50;11.93;;;;;;;;;;5054327;28;20428;-54
2022/05/17 07:36:33;;;;;;;14.20;11.20;;;;;;;;;;5054317;28;20916;-56
2022/05/17 07:38:59;;;;;;;14.13;10.33;;;;;;;;;;5054140;28;20981;-54
2022/05/17 07:41:25;;;;;;;11.43;8.27;;;;;;;;;;5053536;28;20422;-57
2022/05/17 07:43:51;;;;;;;13.10;7.63;;;;;;;;;;5054118;28;20548;-57
2022/05/17 07:46:17;;;;;;;10.13;8.13;;;;;;;;;;5054284;28;20433;-56
2022/05/17 07:48:43;;;;;;;10.67;7.70;;;;;;;;;;5054135;28;20411;-57
2022/05/17 07:51:09;;;;;;;13.40;8.83;;;;;;;;;;5052884;28;20809;-56
2022/05/17 07:53:36;;;;;;;13.93;8.27;;;;;;;;;;5053792;28;20445;-57
2022/05/17 07:56:04;;;;;;;11.33;8.20;;;;;;;;;;5053870;28;20416;-56
2022/05/17 07:58:30;;;;;;;10.07;8.77;;;;;;;;;;5053698;28;20769;-58
2022/05/17 08:00:56;;;;;;;9.83;7.07;;;;;;;;;;5053182;28;20483;-56
2022/05/17 08:03:22;;;;;;;10.40;7.30;;;;;;;;;;5053615;28;20456;-56
2022/05/17 08:05:48;;;;;;;7.07;5.97;;;;;;;;;;5064272;28;20451;-54
2022/05/17 08:08:14;;;;;;;6.37;5.73;;;;;;;;;;5073547;28;20412;-54
2022/05/17 08:10:40;;;;;;;7.80;5.50;;;;;;;;;;5071748;28;20904;-55
2022/05/17 08:13:07;;;;;;;8.40;6.80;;;;;;;;;;5072368;28;20510;-55
2022/05/17 08:15:33;;;;;;;8.97;6.80;;;;;;;;;;5073138;28;20421;-57
2022/05/17 08:18:01;;;;;;;10.60;6.27;;;;;;;;;;5072628;28;20427;-57
2022/05/17 08:20:27;;;;;;;7.33;6.60;;;;;;;;;;5072320;28;20427;-55
2022/05/17 08:22:54;;;;;;;13.67;6.30;;;;;;;;;;5072002;28;20515;-56
2022/05/17 08:28:05;;;;;;;10.47;6.33;;;;;;;;;;5072880;28;20422;-55
2022/05/17 08:30:31;;;;;;;9.77;6.43;;;;;;;;;;5072675;28;20392;-56
2022/05/17 08:33:16;;;;;;;15.50;5.83;;;;;;;;;;5071493;28;20415;-55
2022/05/17 08:35:45;;;;;;;9.17;5.57;;;;;;;;;;5072636;28;20415;-54
2022/05/17 08:38:12;;;;;;;9.83;6.13;;;;;;;;;;5071941;28;20422;-58
2022/05/17 08:40:42;;;;;;;11.70;6.63;;;;;;;;;;5072137;28;20419;-55
2022/05/17 08:43:14;;;;;;;9.70;6.10;;;;;;;;;;5071760;28;20458;-56
2022/05/17 08:45:44;;;;;;;10.07;5.83;;;;;;;;;;5071654;28;20804;-56
2022/05/17 08:48:17;;;;;;;10.90;6.00;;;;;;;;;;5072429;28;20397;-57
2022/05/17 08:50:46;;;;;;;11.70;5.40;;;;;;;;;;5071771;28;20776;-55
2022/05/17 08:53:16;;;;;;;6.40;5.33;;;;;;;;;;5071808;28;20427;-56
2022/05/17 08:55:43;;;;;;;7.93;5.30;;;;;;;;;;5072354;28;20407;-56
2022/05/17 08:58:17;;;;;;;7.10;5.53;;;;;;;;;;5071961;28;20414;-54
2022/05/17 09:00:52;;;;;;;11.10;4.90;;;;;;;;;;5071779;28;20422;-57
2022/05/17 09:03:26;;;;;;;13.13;5.40;;;;;;;;;;5071168;28;20461;-55
2022/05/17 09:06:11;;;;;;;7.57;5.13;;;;;;;;;;5072270;28;20401;-56
2022/05/17 09:08:56;;;;;;;9.63;4.23;;;;;;;;;;5072346;28;20394;-55
2022/05/17 09:11:31;;;;;;;7.97;4.97;;;;;;;;;;5071218;28;20482;-57
2022/05/17 09:14:08;;;;;;;9.73;4.77;;;;;;;;;;5071941;28;20424;-56
2022/05/17 09:16:35;;;;;;;10.83;4.77;;;;;;;;;;5072034;28;20459;-56
2022/05/17 09:19:01;;;;;;;9.30;4.57;;;;;;;;;;5071767;28;20416;-55
2022/05/17 09:21:32;;;;;;;10.70;4.67;;;;;;;;;;5071358;28;20488;-55
2022/05/17 09:23:59;;;;;;;7.67;4.40;;;;;;;;;;5071277;28;20552;-55
2022/05/17 09:26:27;;;;;;;8.90;4.27;;;;;;;;;;5071870;28;20424;-57
2022/05/17 09:28:55;;;;;;;5.90;4.20;;;;;;;;;;5071775;28;20398;-57
2022/05/17 09:31:21;;;;;;;16.80;5.00;;;;;;;;;;5071310;28;20411;-55
2022/05/17 09:33:48;;;;;;;18.83;4.77;;;;;;;;;;5069515;28;20840;-56
2022/05/17 09:36:20;;;;;;;8.70;4.30;;;;;;;;;;5071681;28;20413;-56
2022/05/17 09:38:48;;;;;;;12.70;4.40;;;;;;;;;;5071398;28;20458;-58
2022/05/17 09:41:16;;;;;;;7.33;4.90;;;;;;;;;;5071069;28;20926;-55
2022/05/17 09:43:44;;;;;;;11.57;4.80;;;;;;;;;;5071462;28;21043;-55
2022/05/17 09:46:11;;;;;;;11.90;4.00;;;;;;;;;;5071696;28;20396;-54
2022/05/17 09:54:33;;;;;;;7.87;4.27;;;;;;;;;;5072265;28;20512;-55
2022/05/17 09:57:16;;;;;;;8.83;4.60;;;;;;;;;;5072323;28;20412;-55
2022/05/17 09:59:43;;;;;;;4.60;4.20;;;;;;;;;;5071475;28;20388;-54
2022/05/17 10:02:34;;;;;;;9.83;4.57;;;;;;;;;;5070888;28;20446;-55
2022/05/17 10:05:01;;;;;;;7.63;4.40;;;;;;;;;;5071512;28;20459;-57
2022/05/17 10:07:29;;;;;;;6.40;3.70;;;;;;;;;;5071188;28;20926;-55
2022/05/17 10:09:55;;;;;;;13.47;4.67;;;;;;;;;;5071185;28;20457;-56
2022/05/17 10:12:27;;;;;;;7.27;4.40;;;;;;;;;;5070665;28;20486;-56
2022/05/17 10:14:56;;;;;;;10.97;4.03;;;;;;;;;;5072569;28;20428;-55
2022/05/17 10:17:29;;;;;;;7.13;3.73;;;;;;;;;;5075353;28;20900;-57
2022/05/17 10:19:58;;;;;;;9.40;4.67;;;;;;;;;;5075295;28;20496;-55
2022/05/17 10:22:30;;;;;;;9.77;4.10;;;;;;;;;;5074759;28;20415;-54
2022/05/17 10:24:59;;;;;;;12.10;4.57;;;;;;;;;;5074968;28;20463;-55
2022/05/17 10:27:34;;;;;;;12.87;3.93;;;;;;;;;;5075406;28;20405;-57
2022/05/17 10:30:07;;;;;;;13.67;4.00;;;;;;;;;;5074969;28;20906;-56
2022/05/17 10:32:35;;;;;;;12.87;3.63;;;;;;;;;;5073668;28;20472;-55
2022/05/17 10:35:18;;;;;;;7.33;3.13;;;;;;;;;;5074386;28;20813;-56
2022/05/17 10:37:49;;;;;;;5.73;4.07;;;;;;;;;;5074365;28;20457;-55
2022/05/17 10:40:18;;;;;;;4.83;4.07;;;;;;;;;;5074684;28;20416;-55
2022/05/17 10:42:44;;;;;;;5.00;4.40;;;;;;;;;;5074182;28;20408;-54
2022/05/17 10:45:11;;;;;;;6.60;3.70;;;;;;;;;;5073338;28;20496;-56
2022/05/17 10:47:56;;;;;;;7.70;3.87;;;;;;;;;;5074526;28;20454;-54
2022/05/17 10:50:25;;;;;;;10.00;4.63;;;;;;;;;;5075340;28;20412;-55
2022/05/17 10:52:54;;;;;;;7.30;3.90;;;;;;;;;;5081709;28;20435;-56
2022/05/17 10:55:27;;;;;;;7.00;3.77;;;;;;;;;;5074511;28;20566;-55
2022/05/17 10:57:58;;;;;;;8.00;3.67;;;;;;;;;;5074678;28;20441;-55
2022/05/17 11:00:37;;;;;;;7.87;4.03;;;;;;;;;;5074674;28;20455;-55
2022/05/17 11:03:22;;;;;;;11.37;4.40;;;;;;;;;;5074052;28;20844;-55
2022/05/17 11:06:06;;;;;;;6.07;4.10;;;;;;;;;;5074559;28;20469;-55
2022/05/17 11:08:52;;;;;;;8.67;3.70;;;;;;;;;;5074502;28;20447;-57
2022/05/17 11:11:26;;;;;;;6.83;2.97;;;;;;;;;;5074148;28;20399;-56
2022/05/17 11:13:59;;;;;;;10.73;3.50;;;;;;;;;;5074709;28;20483;-55
2022/05/17 11:16:28;;;;;;;10.03;3.30;;;;;;;;;;5074232;28;20442;-56
2022/05/17 11:18:54;;;;;;;6.60;3.20;;;;;;;;;;5074270;28;20764;-55
2022/05/17 11:21:23;;;;;;;8.30;3.00;;;;;;;;;;5073804;28;20880;-57
2022/05/17 11:23:55;;;;;;;4.67;2.80;;;;;;;;;;5071960;28;20469;-57
2022/05/17 11:26:33;;;;;;;5.20;2.77;;;;;;;;;;5072800;28;20502;-55
2022/05/17 11:29:16;;;;;;;6.57;3.13;;;;;;;;;;5070965;28;20421;-56
2022/05/17 11:31:54;;;;;;;7.60;3.43;;;;;;;;;;5072870;28;20423;-57
2022/05/17 11:34:23;;;;;;;4.47;3.13;;;;;;;;;;5072410;28;20425;-54
2022/05/17 11:36:49;;;;;;;7.80;3.23;;;;;;;;;;5073539;28;20426;-57
2022/05/17 11:39:27;;;;;;;7.53;2.90;;;;;;;;;;5073774;28;20415;-55
2022/05/17 11:42:04;;;;;;;4.90;3.20;;;;;;;;;;5073018;28;20435;-57
2022/05/17 11:44:40;;;;;;;5.33;2.77;;;;;;;;;;5073855;28;20458;-56
2022/05/17 11:47:25;;;;;;;8.70;3.13;;;;;;;;;;5073662;28;20478;-57
2022/05/17 11:49:52;;;;;;;4.57;2.67;;;;;;;;;;5073818;28;20403;-57
2022/05/17 11:52:23;;;;;;;7.73;2.80;;;;;;;;;;5072720;28;20871;-57
2022/05/17 11:54:51;;;;;;;3.23;2.80;;;;;;;;;;5073347;28;21193;-55
2022/05/17 11:57:23;;;;;;;8.60;3.13;;;;;;;;;;5073800;28;20407;-55
2022/05/17 11:59:53;;;;;;;2.70;2.23;;;;;;;;;;5073212;28;20474;-55
2022/05/17 12:02:19;;;;;;;6.63;3.00;;;;;;;;;;5072817;28;20401;-57
2022/05/17 12:04:45;;;;;;;5.40;2.83;;;;;;;;;;5072773;28;20459;-57
2022/05/17 12:07:21;;;;;;;3.17;2.80;;;;;;;;;;5073471;28;20907;-55
2022/05/17 12:09:57;;;;;;;3.13;2.80;;;;;;;;;;5072503;28;20427;-55
2022/05/17 12:12:39;;;;;;;4.60;2.73;;;;;;;;;;5072069;28;20435;-58
2022/05/17 12:15:14;;;;;;;8.70;2.53;;;;;;;;;;5073004;28;20962;-56
2022/05/17 12:17:48;;;;;;;5.67;2.80;;;;;;;;;;5073292;28;20537;-57
2022/05/17 12:20:17;;;;;;;4.40;2.40;;;;;;;;;;5072995;28;20470;-57
2022/05/17 12:22:43;;;;;;;18.47;3.47;;;;;;;;;;5072364;28;20938;-55
2022/05/17 12:25:09;;;;;;;4.80;2.90;;;;;;;;;;5071726;28;20463;-57
2022/05/17 12:27:36;;;;;;;5.27;3.17;;;;;;;;;;5065024;28;20419;-57
2022/05/17 12:33:12;;;;;;;4.70;3.17;;;;;;;;;;5072980;28;20415;-57
2022/05/17 12:35:38;;;;;;;4.00;3.60;;;;;;;;;;5065750;28;20422;-58
2022/05/17 12:43:35;;;;;;;4.03;3.50;;;;;;;;;;5058783;28;20489;-57
2022/05/17 12:46:10;;;;;;;4.53;3.30;;;;;;;;;;5072600;28;20409;-58
2022/05/17 12:48:38;;;;;;;3.63;3.17;;;;;;;;;;5070610;28;20894;-57
2022/05/17 12:51:05;;;;;;;7.63;3.67;;;;;;;;;;5070270;28;20408;-57
2022/05/17 12:53:37;;;;;;;4.10;3.23;;;;;;;;;;5070586;28;20947;-57
2022/05/17 12:56:24;;;;;;;6.63;2.77;;;;;;;;;;5070795;28;21116;-57
2022/05/17 12:58:54;;;;;;;5.47;3.13;;;;;;;;;;5070433;28;20474;-57
2022/05/17 13:01:23;;;;;;;4.43;3.40;;;;;;;;;;5070706;28;20486;-58
2022/05/17 13:03:49;;;;;;;3.47;3.00;;;;;;;;;;5072174;28;20539;-58
2022/05/17 13:06:15;;;;;;;5.63;3.10;;;;;;;;;;5072400;28;20436;-58
2022/05/17 13:08:41;;;;;;;8.57;3.17;;;;;;;;;;5071966;28;20415;-57
2022/05/17 13:11:09;;;;;;;8.50;3.97;;;;;;;;;;5071976;28;20756;-58
2022/05/17 13:13:36;;;;;;;6.20;4.57;;;;;;;;;;5072077;28;20435;-58
2022/05/17 13:16:05;;;;;;;7.83;3.87;;;;;;;;;;5072277;28;20404;-58
2022/05/17 13:18:38;;;;;;;8.27;4.07;;;;;;;;;;5071840;28;20411;-58
2022/05/17 13:21:05;;;;;;;6.60;5.10;;;;;;;;;;5070994;28;20420;-58
2022/05/17 13:23:31;;;;;;;9.47;5.03;;;;;;;;;;5071646;28;20853;-58
2022/05/17 13:26:00;;;;;;;6.70;4.20;;;;;;;;;;5071927;28;21096;-58
2022/05/17 13:28:27;;;;;;;8.67;4.10;;;;;;;;;;5071622;28;20474;-57
2022/05/17 13:31:02;;;;;;;6.97;4.00;;;;;;;;;;5070893;28;20919;-58
2022/05/17 13:33:32;;;;;;;6.80;6.10;;;;;;;;;;5071308;28;20436;-58
2022/05/17 13:36:12;;;;;;;6.17;3.77;;;;;;;;;;5071235;28;20420;-58
2022/05/17 13:38:38;;;;;;;6.20;4.43;;;;;;;;;;5065301;28;20419;-59
2022/05/17 13:41:15;;;;;;;7.83;4.37;;;;;;;;;;5070904;28;20424;-57
2022/05/17 13:43:42;;;;;;;8.40;5.53;;;;;;;;;;5071219;28;20469;-57
2022/05/17 13:46:14;;;;;;;5.47;4.00;;;;;;;;;;5071402;28;20515;-57
2022/05/17 13:48:49;;;;;;;7.90;4.10;;;;;;;;;;5071469;28;20434;-57
2022/05/17 13:51:23;;;;;;;6.47;3.57;;;;;;;;;;5070521;28;20797;-58
2022/05/17 13:53:50;;;;;;;7.73;4.20;;;;;;;;;;5071000;28;20523;-57
2022/05/17 13:56:20;;;;;;;4.93;4.43;;;;;;;;;;5071286;28;20416;-57
2022/05/17 13:58:46;;;;;;;3.40;3.10;;;;;;;;;;5070998;28;20426;-58
2022/05/17 14:01:16;;;;;;;5.53;4.23;;;;;;;;;;5070581;28;20416;-58
2022/05/17 14:03:42;;;;;;;7.70;3.40;;;;;;;;;;5071263;28;20448;-58
2022/05/17 14:06:08;;;;;;;4.70;3.90;;;;;;;;;;5071490;28;20408;-58
2022/05/17 14:14:08;;;;;;;4.83;4.43;;;;;;;;;;5071099;28;20524;-58
2022/05/17 14:16:34;;;;;;;6.73;5.27;;;;;;;;;;5071261;28;20439;-58
2022/05/17 14:19:03;;;;;;;6.97;4.10;;;;;;;;;;5070776;28;20782;-58
2022/05/17 14:21:30;;;;;;;6.80;4.13;;;;;;;;;;5070245;28;20464;-58
2022/05/17 14:23:56;;;;;;;6.57;4.47;;;;;;;;;;5070860;28;20463;-58
2022/05/17 14:26:23;;;;;;;6.70;3.87;;;;;;;;;;5070726;28;20835;-59
2022/05/17 14:28:49;;;;;;;9.47;6.10;;;;;;;;;;5071038;28;20817;-58
2022/05/17 14:31:16;;;;;;;8.10;5.60;;;;;;;;;;5070442;28;20451;-58
2022/05/17 14:33:42;;;;;;;8.17;3.80;;;;;;;;;;5070216;28;20454;-58
2022/05/17 14:36:12;;;;;;;7.87;3.60;;;;;;;;;;5071081;28;21205;-58
2022/05/17 14:38:38;;;;;;;13.90;3.93;;;;;;;;;;5070802;28;20914;-58
2022/05/17 14:41:04;;;;;;;7.50;3.97;;;;;;;;;;5070422;28;20410;-58
2022/05/17 14:43:30;;;;;;;3.73;3.37;;;;;;;;;;5070588;28;20456;-58
2022/05/17 14:45:58;;;;;;;7.07;3.47;;;;;;;;;;5071167;28;20442;-58
2022/05/17 14:48:25;;;;;;;5.97;3.10;;;;;;;;;;5070814;28;20411;-58
2022/05/17 14:50:51;;;;;;;5.40;3.67;;;;;;;;;;5070521;28;20489;-58
2022/05/17 14:53:17;;;;;;;6.10;4.10;;;;;;;;;;5070487;28;20954;-57
2022/05/17 14:55:43;;;;;;;6.97;3.37;;;;;;;;;;5070590;28;20419;-57
2022/05/17 14:58:09;;;;;;;8.50;3.60;;;;;;;;;;5070908;28;20878;-55
2022/05/17 15:00:36;;;;;;;4.60;3.73;;;;;;;;;;5070463;28;20426;-55